createdAt,value
2023-01-17T00:00:00.099Z,3.1
2023-01-17T00:05:00.137Z,3.8
2023-01-17T00:10:00.281Z,4.2
2023-01-17T00:15:00.126Z,5.5
2023-01-17T00:20:00.177Z,2.9
2023-01-17T00:25:00.164Z,2.6
2023-01-17T00:30:00.102Z,2.6
2023-01-17T00:35:00.128Z,3
2023-01-17T00:40:00.102Z,4.2
2023-01-17T00:45:00.120Z,2.3
2023-01-17T00:50:00.160Z,4.7
2023-01-17T00:55:00.129Z,3.3
2023-01-17T01:00:00.163Z,3.3
2023-01-17T01:05:00.102Z,4.2
2023-01-17T01:10:00.118Z,6.7
2023-01-17T01:15:00.091Z,4.1
2023-01-17T01:20:00.132Z,3.6
2023-01-17T01:25:00.130Z,4.6
2023-01-17T01:30:00.109Z,4.6
2023-01-17T01:35:00.125Z,5.6
2023-01-17T01:40:00.110Z,5.7
2023-01-17T01:45:00.106Z,6.1
2023-01-17T01:50:00.106Z,3.1
2023-01-17T01:55:00.133Z,4.4
2023-01-17T02:00:00.114Z,4.4
2023-01-17T02:05:00.105Z,3.2
2023-01-17T02:10:00.163Z,5
2023-01-17T02:15:00.113Z,5.9
2023-01-17T02:20:00.109Z,3
2023-01-17T02:25:00.121Z,5.4
2023-01-17T02:30:00.105Z,5.4
2023-01-17T02:35:00.115Z,3.8
2023-01-17T02:40:00.141Z,6.6
2023-01-17T02:45:00.099Z,4.4
2023-01-17T02:50:00.117Z,4.8
2023-01-17T02:55:00.096Z,3.8
2023-01-17T03:00:00.130Z,3.8
2023-01-17T03:05:00.119Z,3.5
2023-01-17T03:10:00.180Z,7.4
2023-01-17T03:15:00.104Z,4.8
2023-01-17T03:20:00.128Z,5.1
2023-01-17T03:25:00.350Z,3.8
2023-01-17T03:30:00.131Z,3.8
2023-01-17T03:35:00.153Z,2.9
2023-01-17T03:40:00.164Z,6.8
2023-01-17T03:45:00.092Z,6.7
2023-01-17T03:50:00.117Z,5.9
2023-01-17T03:55:00.121Z,4.6
2023-01-17T04:00:00.114Z,4.6
2023-01-17T04:05:00.097Z,5.8
2023-01-17T04:10:00.141Z,3.4
2023-01-17T04:15:00.117Z,4.8
2023-01-17T04:20:00.141Z,5.3
2023-01-17T04:25:00.192Z,3.7
2023-01-17T04:30:00.109Z,3.7
2023-01-17T04:35:00.112Z,3.7
2023-01-17T04:40:00.156Z,4.1
2023-01-17T04:45:00.095Z,5.2
2023-01-17T04:50:00.137Z,4.3
2023-01-17T04:55:00.180Z,5.2
2023-01-17T05:00:00.149Z,5.2
2023-01-17T05:05:00.123Z,7.3
2023-01-17T05:10:00.111Z,4.2
2023-01-17T05:15:00.133Z,4.2
2023-01-17T05:20:00.111Z,4.6
2023-01-17T05:25:00.232Z,6.2
2023-01-17T05:30:00.150Z,6.2
2023-01-17T05:35:00.140Z,6.1
2023-01-17T05:40:00.154Z,6.8
2023-01-17T05:45:00.128Z,8.1
2023-01-17T05:50:00.112Z,5.5
2023-01-17T05:55:00.113Z,5.7
2023-01-17T06:00:00.145Z,5.7
2023-01-17T06:05:01.848Z,6.5
2023-01-17T06:10:00.103Z,6.1
2023-01-17T06:15:00.118Z,6.7
2023-01-17T06:20:00.106Z,8.1
2023-01-17T06:25:00.119Z,7.4
2023-01-17T06:30:00.152Z,7.4
2023-01-17T06:35:00.109Z,7.8
2023-01-17T06:40:00.134Z,7.1
2023-01-17T06:45:00.115Z,9.6
2023-01-17T06:50:00.128Z,10.6
2023-01-17T06:55:00.129Z,7.2
2023-01-17T07:00:00.101Z,7.2
2023-01-17T07:05:00.162Z,7.1
2023-01-17T07:10:00.117Z,7.8
2023-01-17T07:15:00.105Z,7.9
2023-01-17T07:20:00.152Z,8.4
2023-01-17T07:25:00.143Z,8.3
2023-01-17T07:30:00.115Z,8.3
2023-01-17T07:35:00.116Z,8.4
2023-01-17T07:40:00.094Z,8.9
2023-01-17T07:45:00.110Z,10.9
2023-01-17T07:50:00.116Z,8.4
2023-01-17T07:55:00.133Z,8.3
2023-01-17T08:00:00.146Z,8.3
2023-01-17T08:05:00.115Z,5.8
2023-01-17T08:10:00.115Z,6
2023-01-17T08:15:00.105Z,6
2023-01-17T08:20:00.124Z,4.2
2023-01-17T08:25:00.115Z,6.5
2023-01-17T08:30:00.112Z,6.5
2023-01-17T08:35:00.122Z,4.6
2023-01-17T08:40:00.119Z,5.2
2023-01-17T08:45:00.101Z,5.6
2023-01-17T08:50:00.127Z,5
2023-01-17T08:55:00.116Z,6.4
2023-01-17T09:00:00.176Z,6.4
2023-01-17T09:05:00.098Z,5.3
2023-01-17T09:10:00.145Z,4.4
2023-01-17T09:15:00.152Z,5.2
2023-01-17T09:20:00.122Z,6.7
2023-01-17T09:25:00.118Z,6.1
2023-01-17T09:30:00.133Z,6.1
2023-01-17T09:35:00.111Z,5.9
2023-01-17T09:40:00.138Z,3.7
2023-01-17T09:45:00.133Z,6.1
2023-01-17T09:50:00.150Z,5.9
2023-01-17T09:55:00.117Z,5.7
2023-01-17T10:00:03.415Z,5.7
2023-01-17T10:05:00.190Z,5.8
2023-01-17T10:10:00.130Z,5.6
2023-01-17T10:15:00.123Z,7.4
2023-01-17T10:20:00.113Z,4.9
2023-01-17T10:25:00.111Z,6.7
2023-01-17T10:30:00.129Z,6.7
2023-01-17T10:35:00.113Z,6.1
2023-01-17T10:40:00.106Z,5.9
2023-01-17T10:45:00.116Z,6.4
2023-01-17T10:50:00.116Z,5.7
2023-01-17T10:55:00.114Z,5.9
2023-01-17T11:00:00.142Z,5.9
2023-01-17T11:05:00.113Z,7.4
2023-01-17T11:10:00.132Z,5.3
2023-01-17T11:15:00.099Z,4.5
2023-01-17T11:20:00.099Z,5.3
2023-01-17T11:25:00.101Z,5.2
2023-01-17T11:30:00.111Z,5.2
2023-01-17T11:35:00.109Z,5.2
2023-01-17T11:40:00.133Z,7.3
2023-01-17T11:45:00.127Z,4.8
2023-01-17T11:50:00.115Z,5
2023-01-17T11:55:00.113Z,5.3
2023-01-17T12:00:00.114Z,5.3
2023-01-17T12:05:00.151Z,3.8
2023-01-17T12:10:00.105Z,4.8
2023-01-17T12:15:00.154Z,5.1
2023-01-17T12:20:00.109Z,5
2023-01-17T12:25:00.115Z,4.3
2023-01-17T12:30:00.138Z,4.3
2023-01-17T12:35:00.159Z,5.1
2023-01-17T12:40:00.127Z,4.8
2023-01-17T12:45:00.106Z,5
2023-01-17T12:50:00.124Z,5.3
2023-01-17T12:55:00.135Z,4
2023-01-17T13:00:00.106Z,4
2023-01-17T13:05:00.120Z,3.4
2023-01-17T13:10:00.139Z,4.1
2023-01-17T13:15:00.123Z,3.7
2023-01-17T13:20:00.126Z,5.6
2023-01-17T13:25:00.124Z,5.8
2023-01-17T13:30:00.113Z,5.8
2023-01-17T13:35:01.581Z,6.4
2023-01-17T13:40:00.117Z,7.5
2023-01-17T13:45:00.102Z,5.7
2023-01-17T13:50:00.119Z,5.6
2023-01-17T13:55:00.116Z,4.1
2023-01-17T14:00:00.163Z,4.1
2023-01-17T14:05:00.112Z,4.6
2023-01-17T14:10:00.136Z,5
2023-01-17T14:15:00.104Z,4.6
2023-01-17T14:20:00.111Z,4.6
2023-01-17T14:25:00.104Z,6.3
2023-01-17T14:30:00.196Z,6.3
2023-01-17T14:35:00.116Z,6.1
2023-01-17T14:40:00.125Z,5.8
2023-01-17T14:45:00.166Z,5
2023-01-17T14:50:00.118Z,7.1
2023-01-17T14:55:00.100Z,4.5
2023-01-17T15:00:00.135Z,4.5
2023-01-17T15:05:00.130Z,5.4
2023-01-17T15:10:00.134Z,6.5
2023-01-17T15:15:00.106Z,5.5
2023-01-17T15:20:00.121Z,5.2
2023-01-17T15:25:00.117Z,5.4
2023-01-17T15:30:00.138Z,5.4
2023-01-17T15:35:00.114Z,4.3
2023-01-17T15:40:00.104Z,4.8
2023-01-17T15:45:00.101Z,7.3
2023-01-17T15:50:00.191Z,11.4
2023-01-17T15:55:00.149Z,8.8
2023-01-17T16:00:00.134Z,8.8
2023-01-17T16:05:00.133Z,10.9
2023-01-17T16:10:00.111Z,6.6
2023-01-17T16:15:11.607Z,6.6
2023-01-17T16:20:00.281Z,7.6
2023-01-17T16:25:00.123Z,7.9
2023-01-17T16:30:00.148Z,7.9
2023-01-17T16:35:00.145Z,8.2
2023-01-17T16:40:00.219Z,7.4
2023-01-17T16:45:00.114Z,6.2
2023-01-17T16:50:00.238Z,6.8
2023-01-17T16:55:00.108Z,5.3
2023-01-17T17:00:00.174Z,5.3
2023-01-17T17:05:00.155Z,6.7
2023-01-17T17:10:00.141Z,9.4
2023-01-17T17:15:00.109Z,9.5
2023-01-17T17:20:00.119Z,12
2023-01-17T17:25:00.093Z,16.5
2023-01-17T17:30:00.125Z,16.5
2023-01-17T17:35:00.120Z,17.3
2023-01-17T17:40:00.105Z,14.7
2023-01-17T17:45:00.100Z,10.7
2023-01-17T17:50:00.160Z,9
2023-01-17T17:55:00.105Z,12.2
2023-01-17T18:00:00.144Z,12.2
2023-01-17T18:05:00.188Z,14
2023-01-17T18:10:00.161Z,12
2023-01-17T18:15:00.115Z,11.3
2023-01-17T18:20:00.124Z,12.4
2023-01-17T18:25:00.106Z,10.9
2023-01-17T18:30:00.134Z,10.9
2023-01-17T18:35:00.137Z,13.9
2023-01-17T18:40:00.123Z,13.5
2023-01-17T18:45:00.119Z,12.3
2023-01-17T18:50:00.155Z,14.9
2023-01-17T18:55:00.113Z,12.4
2023-01-17T19:00:00.107Z,12.4
2023-01-17T19:05:00.107Z,12.8
2023-01-17T19:10:00.117Z,12.5
2023-01-17T19:15:00.103Z,12.2
2023-01-17T19:20:00.130Z,12.6
2023-01-17T19:25:00.138Z,12.2
2023-01-17T19:30:00.106Z,12.2
2023-01-17T19:35:00.141Z,25.9
2023-01-17T19:40:00.121Z,12
2023-01-17T19:45:00.133Z,13.2
2023-01-17T19:50:00.102Z,10.7
2023-01-17T19:55:00.087Z,12.4
2023-01-17T20:00:00.114Z,12.4
2023-01-17T20:05:00.137Z,15.8
2023-01-17T20:10:00.135Z,12.9
2023-01-17T20:15:00.103Z,10.7
2023-01-17T20:20:00.127Z,10.5
2023-01-17T20:25:00.120Z,10.1
2023-01-17T20:30:11.034Z,10.1
2023-01-17T20:35:00.118Z,11.8
2023-01-17T20:40:00.100Z,11.6
2023-01-17T20:45:00.103Z,10.6
2023-01-17T20:50:00.162Z,9.7
2023-01-17T20:55:00.116Z,10.4
2023-01-17T21:00:00.203Z,10.4
2023-01-17T21:05:00.304Z,7.1
2023-01-17T21:10:00.135Z,9.7
2023-01-17T21:15:00.109Z,7.9
2023-01-17T21:20:00.153Z,10.3
2023-01-17T21:25:00.126Z,9.2
2023-01-17T21:30:00.136Z,9.2
2023-01-17T21:35:00.120Z,7.3
2023-01-17T21:40:00.125Z,7.8
2023-01-17T21:45:00.099Z,10.3
2023-01-17T21:50:00.135Z,9
2023-01-17T21:55:00.158Z,7.5
2023-01-17T22:00:00.146Z,7.5
2023-01-17T22:05:00.117Z,8.3
2023-01-17T22:10:00.127Z,7.2
2023-01-17T22:15:00.099Z,7.2
2023-01-17T22:20:00.137Z,7.3
2023-01-17T22:25:00.110Z,9.1
2023-01-17T22:30:00.091Z,9.1
2023-01-17T22:35:00.121Z,8.9
2023-01-17T22:40:00.117Z,6.5
2023-01-17T22:45:00.103Z,9.2
2023-01-17T22:50:00.140Z,9.5
2023-01-17T22:55:00.133Z,8.9
2023-01-17T23:00:00.117Z,8.9
2023-01-17T23:05:00.122Z,7.5
2023-01-17T23:10:00.158Z,9.4
2023-01-17T23:15:00.109Z,8.8
2023-01-17T23:20:00.115Z,7.9
2023-01-17T23:25:00.094Z,7.8
2023-01-17T23:30:00.113Z,7.8
2023-01-17T23:35:00.138Z,9.1
2023-01-17T23:40:00.113Z,6.4
2023-01-17T23:45:00.126Z,9.2
2023-01-17T23:50:00.109Z,7.7
2023-01-17T23:55:00.131Z,6
